Time;durP1;ratioP1;P1;durP2;ratioP2;P2;SDS_P1;SDS_P2;PMS_P1;PMS_P2;Temp;Humidity;BMP_temperature;BMP_pressure;BME280_temperature;BME280_humidity;BME280_pressure;Samples;Min_cycle;Max_cycle;Signal;HPM_P1;HPM_P2
2021/01/12 00:01:13;;;;;;;0.88;0.10;;;;;;;9.04;82.49;100145.66;5086672;28;20458;-74
2021/01/12 00:03:38;;;;;;;0.30;0.20;;;;;;;9.06;83.09;100151.66;5056348;28;20070;-74
2021/01/12 00:06:06;;;;;;;2.80;0.32;;;;;;;9.06;82.44;100146.22;5054906;28;20035;-73
2021/01/12 00:08:32;;;;;;;0.10;0.10;;;;;;;9.05;82.56;100139.94;5068272;28;20051;-73
2021/01/12 00:10:57;;;;;;;1.40;0.15;;;;;;;9.06;82.43;100140.75;5066658;28;20568;-74
2021/01/12 00:13:44;;;;;;;1.98;0.20;;;;;;;8.95;83.29;100128.13;5047207;28;20025;-78
2021/01/12 00:16:13;;;;;;;0.08;0.00;;;;;;;9.04;83.06;100142.94;5058184;28;20351;-78
2021/01/12 00:18:38;;;;;;;0.52;0.50;;;;;;;9.03;83.30;100141.28;5050873;28;20024;-79
2021/01/12 00:21:04;;;;;;;0.60;0.17;;;;;;;8.94;83.69;100115.59;5045080;28;20429;-78
2021/01/12 00:23:29;;;;;;;1.55;0.38;;;;;;;9.02;83.54;100128.72;5030336;28;20536;-78
2021/01/12 00:25:55;;;;;;;0.17;0.08;;;;;;;8.94;83.33;100110.16;5060366;28;20029;-79
2021/01/12 00:28:20;;;;;;;2.63;0.28;;;;;;;9.03;83.34;100117.56;5035132;28;20497;-79
2021/01/12 00:30:45;;;;;;;0.20;0.03;;;;;;;9.07;84.01;100126.03;5032826;28;20032;-78
2021/01/12 00:33:11;;;;;;;0.73;0.17;;;;;;;9.02;83.73;100106.91;5060897;28;20037;-78
2021/01/12 00:35:36;;;;;;;0.13;0.10;;;;;;;9.02;83.28;100110.47;5045351;28;20028;-78
2021/01/12 00:38:05;;;;;;;0.20;0.15;;;;;;;9.03;83.73;100097.66;5041389;28;20106;-80
2021/01/12 00:40:33;;;;;;;0.88;0.10;;;;;;;8.90;83.50;100079.84;5047846;28;20055;-80
2021/01/12 00:43:00;;;;;;;0.52;0.20;;;;;;;8.90;83.82;100088.00;5055624;28;20025;-79
2021/01/12 00:45:28;;;;;;;1.75;0.10;;;;;;;8.94;83.47;100100.03;5072723;28;20031;-79
2021/01/12 00:48:01;;;;;;;0.30;0.10;;;;;;;8.98;84.00;100073.06;5053192;28;20040;-79
2021/01/12 00:50:27;;;;;;;0.20;0.10;;;;;;;8.88;83.96;100047.38;5064363;28;20024;-81
2021/01/12 00:52:53;;;;;;;1.17;0.10;;;;;;;8.96;84.06;100047.97;5031572;28;20095;-80
2021/01/12 00:55:21;;;;;;;0.10;0.10;;;;;;;8.94;83.55;100044.69;5035014;28;20043;-79
2021/01/12 00:57:46;;;;;;;0.47;0.10;;;;;;;8.90;83.46;100023.38;5067622;28;20064;-77
2021/01/12 01:00:12;;;;;;;0.68;0.28;;;;;;;8.90;83.66;100028.84;5042868;28;20051;-78
2021/01/12 01:02:40;;;;;;;0.10;0.00;;;;;;;8.93;83.72;100029.41;5034661;28;20037;-80
2021/01/12 01:05:09;;;;;;;4.47;0.00;;;;;;;8.98;83.99;100032.16;5049357;28;20021;-80
2021/01/12 01:07:34;;;;;;;0.20;0.00;;;;;;;9.00;84.09;100019.91;5026599;28;20143;-78
2021/01/12 01:10:01;;;;;;;0.50;0.05;;;;;;;8.90;83.57;100009.75;5041635;28;20114;-78
2021/01/12 01:12:29;;;;;;;1.58;0.20;;;;;;;8.98;84.23;100013.06;5043818;28;20047;-76
2021/01/12 01:14:54;;;;;;;2.55;0.28;;;;;;;8.88;83.67;100003.75;5047253;28;20032;-78
2021/01/12 01:17:20;;;;;;;1.25;0.08;;;;;;;8.90;83.84;100009.75;5038820;28;20066;-79
2021/01/12 01:19:45;;;;;;;0.80;0.20;;;;;;;8.96;83.60;100004.34;5025003;28;20036;-79
2021/01/12 01:22:10;;;;;;;0.13;0.10;;;;;;;8.96;83.99;100009.78;5039870;28;20025;-74
2021/01/12 01:24:36;;;;;;;0.52;0.10;;;;;;;8.95;83.75;99989.03;5063778;28;20126;-75
2021/01/12 01:27:01;;;;;;;1.65;0.00;;;;;;;8.93;84.13;99986.59;5048976;28;20036;-75
2021/01/12 01:29:27;;;;;;;0.93;0.00;;;;;;;8.91;83.98;99973.22;5054438;28;20032;-74
2021/01/12 01:31:52;;;;;;;0.80;0.10;;;;;;;8.90;84.65;99968.84;5069570;28;20150;-77
2021/01/12 01:34:18;;;;;;;0.00;0.00;;;;;;;8.84;84.39;99953.56;5069448;28;20041;-76
2021/01/12 01:36:43;;;;;;;1.13;0.15;;;;;;;8.86;85.42;99956.84;5054016;28;20093;-76
2021/01/12 01:39:09;;;;;;;0.10;0.10;;;;;;;8.84;85.07;99961.72;5054480;28;20381;-76
2021/01/12 01:41:34;;;;;;;0.57;0.20;;;;;;;8.88;84.49;99979.22;5051422;28;20025;-80
2021/01/12 01:43:59;;;;;;;0.15;0.15;;;;;;;8.88;85.02;99973.75;5043559;28;20393;-79
2021/01/12 01:46:26;;;;;;;0.22;0.00;;;;;;;8.89;83.90;99986.31;5070247;28;20016;-77
2021/01/12 01:48:51;;;;;;;1.15;0.20;;;;;;;8.96;84.29;99996.16;5070593;28;20055;-77
2021/01/12 01:51:17;;;;;;;1.95;0.10;;;;;;;8.92;83.97;99998.56;5026470;28;20037;-77
2021/01/12 01:53:43;;;;;;;1.30;0.30;;;;;;;8.86;85.54;100003.22;5041883;28;20402;-76
2021/01/12 01:56:09;;;;;;;1.17;0.35;;;;;;;8.85;84.88;99993.38;5035368;28;20029;-78
2021/01/12 01:58:41;;;;;;;2.75;0.45;;;;;;;8.79;85.16;99990.88;5077901;28;20024;-78
2021/01/12 02:01:07;;;;;;;0.00;0.00;;;;;;;8.83;85.48;99984.63;5085048;28;20532;-76
2021/01/12 02:03:44;;;;;;;0.93;0.10;;;;;;;8.81;86.32;99992.25;5049228;28;20033;-76
2021/01/12 02:06:35;;;;;;;0.20;0.08;;;;;;;8.79;86.58;100005.34;5065760;28;20100;-76
2021/01/12 02:09:09;;;;;;;0.10;0.10;;;;;;;8.73;86.69;100006.38;5058105;28;20502;-77
2021/01/12 02:11:41;;;;;;;0.10;0.10;;;;;;;8.73;86.71;100009.94;5066045;28;20032;-76
2021/01/12 02:14:13;;;;;;;0.32;0.20;;;;;;;8.70;86.94;100001.47;5058810;28;20463;-76
2021/01/12 02:16:40;;;;;;;0.10;0.10;;;;;;;8.71;87.48;100000.38;5061136;28;20467;-76
2021/01/12 02:19:10;;;;;;;0.00;0.00;;;;;;;8.72;86.66;100004.75;5063254;28;20538;-76
2021/01/12 02:21:43;;;;;;;0.22;0.00;;;;;;;8.61;87.20;99954.00;5056987;28;20028;-76
2021/01/12 02:24:09;;;;;;;3.30;0.20;;;;;;;8.72;86.46;99982.94;5066702;28;20017;-76
2021/01/12 02:26:34;;;;;;;0.77;0.10;;;;;;;8.70;87.67;100001.47;5060283;28;20032;-76
2021/01/12 02:29:00;;;;;;;1.10;0.10;;;;;;;8.71;87.41;99982.13;5072144;28;20029;-75
2021/01/12 02:31:29;;;;;;;3.30;0.08;;;;;;;8.72;87.50;99977.50;5068408;28;20111;-75
2021/01/12 02:33:58;;;;;;;0.15;0.05;;;;;;;8.66;87.29;99978.53;5073107;28;20056;-74
2021/01/12 02:36:24;;;;;;;0.65;0.00;;;;;;;8.70;87.61;99974.19;5075636;28;20482;-76
2021/01/12 02:38:50;;;;;;;0.30;0.10;;;;;;;8.65;87.46;99983.19;5078872;28;20078;-76
2021/01/12 02:41:17;;;;;;;0.95;0.30;;;;;;;8.68;87.33;99987.28;5031969;28;20032;-76
2021/01/12 02:43:44;;;;;;;8.07;0.52;;;;;;;8.61;88.19;99986.69;5050563;28;20028;-75
2021/01/12 02:46:10;;;;;;;5.28;0.20;;;;;;;8.66;87.67;99986.72;5060658;28;20020;-76
2021/01/12 02:48:36;;;;;;;3.08;0.30;;;;;;;8.72;87.78;99999.31;5071700;28;20443;-76
2021/01/12 02:51:01;;;;;;;4.97;0.28;;;;;;;8.71;87.15;99975.84;5067132;28;20038;-74
2021/01/12 02:53:27;;;;;;;6.90;0.30;;;;;;;8.68;87.49;99968.22;5050640;28;20613;-75
2021/01/12 02:55:52;;;;;;;4.60;0.30;;;;;;;8.71;87.50;99973.94;5072989;28;20032;-74
2021/01/12 02:58:18;;;;;;;2.45;0.40;;;;;;;8.74;86.89;99942.59;5058664;28;20028;-75
2021/01/12 03:00:45;;;;;;;0.52;0.20;;;;;;;8.76;87.24;99956.81;5064909;28;20032;-75
2021/01/12 03:03:11;;;;;;;5.22;0.32;;;;;;;8.72;87.66;99939.34;5071122;28;20027;-76
2021/01/12 03:05:36;;;;;;;1.77;0.30;;;;;;;8.78;87.63;99943.72;5071461;28;20033;-77
2021/01/12 03:08:02;;;;;;;0.85;0.25;;;;;;;8.77;87.18;99942.06;5062477;28;20706;-75
2021/01/12 03:10:27;;;;;;;7.55;0.30;;;;;;;8.74;87.01;99937.16;5055813;28;20040;-75
2021/01/12 03:12:52;;;;;;;5.68;0.35;;;;;;;8.78;87.63;99927.38;5056697;28;20029;-75
2021/01/12 03:15:18;;;;;;;1.95;0.60;;;;;;;8.78;87.36;99927.38;5068515;28;20055;-75
2021/01/12 03:17:43;;;;;;;4.93;0.50;;;;;;;8.80;86.90;99930.63;5040751;28;20417;-76
2021/01/12 03:20:09;;;;;;;6.75;0.75;;;;;;;8.79;86.87;99939.06;5045630;28;20102;-76
2021/01/12 03:22:35;;;;;;;3.42;0.38;;;;;;;8.74;87.39;99920.78;5052033;28;20031;-76
2021/01/12 03:25:00;;;;;;;3.25;0.40;;;;;;;8.76;87.25;99935.00;5067684;28;20096;-76
2021/01/12 03:27:25;;;;;;;0.70;0.50;;;;;;;8.75;87.59;99933.34;5079079;28;20324;-76
2021/01/12 03:29:51;;;;;;;0.60;0.25;;;;;;;8.73;87.77;99921.88;5061251;28;20425;-76
2021/01/12 03:32:16;;;;;;;1.27;0.30;;;;;;;8.75;87.37;99917.00;5058680;28;20040;-75
2021/01/12 03:34:41;;;;;;;0.40;0.20;;;;;;;8.72;87.87;99928.44;5038132;28;20459;-75
2021/01/12 03:37:07;;;;;;;4.07;0.52;;;;;;;8.69;87.51;99937.16;5067252;28;20078;-77
2021/01/12 03:39:32;;;;;;;3.17;0.47;;;;;;;8.74;88.31;99926.25;5047649;28;20056;-77
2021/01/12 03:41:58;;;;;;;0.70;0.20;;;;;;;8.74;87.50;99912.63;5061912;28;20103;-76
2021/01/12 03:44:24;;;;;;;2.85;0.47;;;;;;;8.78;87.87;99919.19;5060943;28;20381;-77
2021/01/12 03:46:50;;;;;;;2.83;0.45;;;;;;;8.78;88.02;99908.28;5067116;28;20035;-77
2021/01/12 03:49:15;;;;;;;4.57;0.38;;;;;;;8.77;88.51;99903.09;5052244;28;20024;-75
2021/01/12 03:51:41;;;;;;;1.20;0.68;;;;;;;8.81;88.01;99907.75;5063205;28;20035;-75
2021/01/12 03:54:06;;;;;;;5.20;0.75;;;;;;;8.82;87.43;99900.38;5064585;28;20466;-75
2021/01/12 03:56:32;;;;;;;3.03;0.40;;;;;;;8.80;87.44;99903.38;5065699;28;20052;-75
2021/01/12 03:58:57;;;;;;;0.68;0.20;;;;;;;8.84;88.34;99877.22;5063689;28;20115;-74
2021/01/12 04:01:23;;;;;;;0.65;0.40;;;;;;;8.84;87.83;99899.03;5063953;28;20032;-75
2021/01/12 04:03:48;;;;;;;0.35;0.20;;;;;;;8.89;87.83;99882.69;5062497;28;20021;-75
2021/01/12 04:06:16;;;;;;;4.30;0.22;;;;;;;8.86;88.25;99891.41;5052504;28;20101;-74
2021/01/12 04:08:46;;;;;;;3.97;0.63;;;;;;;8.87;87.15;99876.66;5053872;28;20491;-76
2021/01/12 04:11:13;;;;;;;0.65;0.15;;;;;;;8.88;88.44;99872.06;5053648;28;20102;-76
2021/01/12 04:13:39;;;;;;;7.15;0.45;;;;;;;8.83;88.14;99863.84;5055502;28;20013;-76
2021/01/12 04:16:07;;;;;;;3.45;0.20;;;;;;;8.90;87.95;99865.22;5057657;28;20067;-76
2021/01/12 04:18:33;;;;;;;2.45;0.10;;;;;;;8.91;87.88;99860.59;5063154;28;20035;-78
2021/01/12 04:20:59;;;;;;;0.40;0.10;;;;;;;8.90;87.88;99864.41;5043245;28;20044;-77
2021/01/12 04:23:24;;;;;;;0.60;0.10;;;;;;;8.91;87.37;99868.78;5067589;28;20119;-77
2021/01/12 04:25:50;;;;;;;0.55;0.10;;;;;;;8.91;87.84;99872.31;5049508;28;20081;-77
2021/01/12 04:28:15;;;;;;;1.52;0.22;;;;;;;8.90;88.12;99873.41;5038343;28;20041;-77
2021/01/12 04:30:41;;;;;;;0.00;0.00;;;;;;;8.89;88.21;99863.59;5050286;28;20025;-77
2021/01/12 04:33:06;;;;;;;0.55;0.10;;;;;;;8.95;88.37;99855.44;5041609;28;20051;-76
2021/01/12 04:35:32;;;;;;;0.00;0.00;;;;;;;8.94;87.78;99875.63;5053482;28;20024;-75
2021/01/12 04:37:57;;;;;;;0.20;0.00;;;;;;;8.95;88.34;99866.34;5045154;28;20043;-75
2021/01/12 04:40:23;;;;;;;0.50;0.20;;;;;;;9.02;87.77;99872.34;5049815;28;20387;-74
2021/01/12 04:42:48;;;;;;;3.42;0.13;;;;;;;9.01;87.86;99876.16;5052734;28;20722;-73
2021/01/12 04:45:14;;;;;;;0.82;0.20;;;;;;;9.02;88.03;99883.25;5054324;28;20025;-74
2021/01/12 04:47:39;;;;;;;0.93;0.10;;;;;;;8.98;88.13;99871.25;5056467;28;20106;-74
2021/01/12 04:50:05;;;;;;;0.20;0.00;;;;;;;8.96;88.42;99876.16;5046498;28;20110;-75
2021/01/12 04:52:51;;;;;;;2.17;0.10;;;;;;;9.00;88.45;99864.44;5030185;28;20072;-76
2021/01/12 04:55:18;;;;;;;0.30;0.08;;;;;;;9.01;88.58;99873.44;5053746;28;20108;-75
2021/01/12 04:57:58;;;;;;;0.05;0.00;;;;;;;9.00;88.49;99874.53;5042245;28;20130;-76
2021/01/12 05:00:28;;;;;;;2.30;0.17;;;;;;;8.94;88.96;99864.72;5046690;28;20108;-75
2021/01/12 05:03:07;;;;;;;0.55;0.10;;;;;;;8.95;88.66;99860.88;5051129;28;20027;-75
2021/01/12 05:05:36;;;;;;;1.00;0.10;;;;;;;8.96;88.46;99862.53;5048466;28;20025;-75
2021/01/12 05:08:03;;;;;;;1.23;0.22;;;;;;;9.01;88.76;99860.63;5042569;28;20126;-74
2021/01/12 05:10:33;;;;;;;1.23;0.08;;;;;;;9.09;88.68;99872.91;5040918;28;20104;-74
2021/01/12 05:12:59;;;;;;;0.32;0.00;;;;;;;9.03;89.23;99874.81;5055541;28;20032;-75
2021/01/12 05:15:27;;;;;;;0.00;0.00;;;;;;;9.05;88.49;99871.81;5034511;28;20033;-75
2021/01/12 05:17:56;;;;;;;0.10;0.00;;;;;;;9.07;89.49;99875.91;5056404;28;20056;-75
2021/01/12 05:20:25;;;;;;;0.00;0.00;;;;;;;9.09;88.87;99867.47;5038098;28;20024;-74
2021/01/12 05:23:08;;;;;;;0.15;0.00;;;;;;;9.14;88.72;99875.66;5048689;28;20025;-75
2021/01/12 05:25:36;;;;;;;0.63;0.00;;;;;;;9.13;88.34;99884.94;5041339;28;20467;-73
2021/01/12 05:28:06;;;;;;;0.10;0.00;;;;;;;9.15;88.88;99882.75;5034489;28;20021;-75
2021/01/12 05:30:32;;;;;;;0.00;0.00;;;;;;;9.16;88.93;99878.13;5024169;28;20495;-75
2021/01/12 05:32:58;;;;;;;0.00;0.00;;;;;;;9.11;89.29;99876.19;5037500;28;20087;-76
2021/01/12 05:35:35;;;;;;;0.00;0.00;;;;;;;9.16;89.15;99883.59;5039487;28;20424;-78
2021/01/12 05:38:06;;;;;;;2.95;0.00;;;;;;;9.12;88.77;99877.81;5041863;28;20104;-77
2021/01/12 05:40:40;;;;;;;0.10;0.00;;;;;;;9.18;89.21;99875.94;5034115;28;20032;-79
2021/01/12 05:43:12;;;;;;;0.10;0.00;;;;;;;9.12;89.31;99875.09;5049606;28;20021;-77
2021/01/12 05:45:42;;;;;;;0.95;0.00;;;;;;;9.16;89.40;99878.94;5046897;28;20032;-77
2021/01/12 05:48:09;;;;;;;0.17;0.10;;;;;;;9.15;88.80;99865.56;5051725;28;20040;-78
2021/01/12 05:50:35;;;;;;;0.20;0.20;;;;;;;9.13;89.20;99863.09;5042690;28;20022;-77
2021/01/12 05:53:14;;;;;;;0.10;0.00;;;;;;;9.08;89.17;99865.81;5050219;28;20037;-78
2021/01/12 05:55:41;;;;;;;0.20;0.10;;;;;;;9.13;88.83;99863.09;5047473;28;20022;-78
2021/01/12 05:58:18;;;;;;;0.00;0.00;;;;;;;9.14;89.08;99866.66;5042818;28;20071;-77
2021/01/12 06:00:46;;;;;;;0.05;0.05;;;;;;;9.22;89.29;99872.38;5041753;28;20032;-78
2021/01/12 06:03:17;;;;;;;0.00;0.00;;;;;;;9.18;89.82;99860.38;5042874;28;20028;-78
2021/01/12 06:05:46;;;;;;;1.15;0.10;;;;;;;9.25;89.00;99882.75;5044729;28;20112;-78
2021/01/12 06:08:19;;;;;;;0.60;0.00;;;;;;;9.29;89.09;99882.22;5050765;28;20048;-77
2021/01/12 06:10:45;;;;;;;1.08;0.20;;;;;;;9.29;89.42;99891.22;5045034;28;20045;-77
2021/01/12 06:13:18;;;;;;;0.32;0.03;;;;;;;9.24;89.11;99881.13;5059841;28;20071;-76
2021/01/12 06:15:45;;;;;;;0.47;0.10;;;;;;;9.30;89.93;99894.78;5046807;28;20017;-75
2021/01/12 06:18:20;;;;;;;1.58;0.17;;;;;;;9.37;89.81;99889.88;5048811;28;20025;-74
2021/01/12 06:20:54;;;;;;;2.00;0.20;;;;;;;9.42;89.57;99892.63;5051079;28;20402;-75
2021/01/12 06:23:37;;;;;;;1.55;0.13;;;;;;;9.50;89.52;99883.88;5055564;28;20370;-75
2021/01/12 06:26:02;;;;;;;2.58;0.20;;;;;;;9.43;89.18;99888.78;5050085;28;20340;-74
2021/01/12 06:28:29;;;;;;;1.50;0.10;;;;;;;9.51;88.98;99896.44;5022640;28;20052;-74
2021/01/12 06:30:55;;;;;;;1.55;0.22;;;;;;;9.53;89.16;99894.25;5054185;28;20094;-75
2021/01/12 06:33:21;;;;;;;2.22;0.50;;;;;;;9.50;88.60;99894.78;5039985;28;20037;-74
2021/01/12 06:35:50;;;;;;;4.47;0.20;;;;;;;9.53;89.53;99886.06;5028248;28;20040;-75
2021/01/12 06:38:20;;;;;;;3.60;0.38;;;;;;;9.55;89.44;99905.72;5045591;28;20434;-76
2021/01/12 06:40:52;;;;;;;0.75;0.20;;;;;;;9.61;88.94;99891.00;5048408;28;20021;-75
2021/01/12 06:43:25;;;;;;;1.40;0.20;;;;;;;9.60;88.94;99889.34;5041101;28;20028;-75
2021/01/12 06:45:52;;;;;;;4.75;0.30;;;;;;;9.59;89.28;99890.44;5045478;28;20115;-75
2021/01/12 06:48:18;;;;;;;2.72;0.55;;;;;;;9.63;88.66;99907.09;5056890;28;20036;-75
2021/01/12 06:50:45;;;;;;;0.60;0.10;;;;;;;9.60;88.46;99889.34;5043048;28;20024;-74
2021/01/12 06:53:13;;;;;;;0.38;0.17;;;;;;;9.64;88.94;99921.56;5047975;28;20473;-74
2021/01/12 06:55:38;;;;;;;1.83;0.30;;;;;;;9.64;89.53;99913.38;5048209;28;20021;-74
2021/01/12 06:58:08;;;;;;;1.08;0.38;;;;;;;9.68;89.02;99906.28;5050937;28;20047;-73
2021/01/12 07:00:36;;;;;;;0.93;0.15;;;;;;;9.67;89.08;99912.84;5052642;28;20028;-74
2021/01/12 07:03:03;;;;;;;5.15;0.63;;;;;;;9.66;89.60;99924.84;5057401;28;20016;-74
2021/01/12 07:05:37;;;;;;;2.33;0.32;;;;;;;9.72;89.42;99919.09;5062460;28;20025;-75
2021/01/12 07:08:07;;;;;;;3.95;0.40;;;;;;;9.71;88.58;99927.56;5058898;28;20043;-75
2021/01/12 07:10:46;;;;;;;3.80;0.85;;;;;;;9.76;88.66;99938.50;5069173;28;20036;-75
2021/01/12 07:13:12;;;;;;;3.83;0.40;;;;;;;9.69;88.95;99936.03;5072862;28;20025;-75
2021/01/12 07:15:42;;;;;;;2.30;1.15;;;;;;;9.65;89.27;99923.19;5053951;28;20041;-74
2021/01/12 07:18:08;;;;;;;1.20;0.30;;;;;;;9.68;89.34;99925.38;5051873;28;20391;-76
2021/01/12 07:20:43;;;;;;;6.95;0.90;;;;;;;9.68;88.56;99939.03;5045733;28;20029;-80
2021/01/12 07:23:11;;;;;;;1.58;0.50;;;;;;;9.74;88.51;99932.50;5044930;28;20112;-81
2021/01/12 07:25:41;;;;;;;2.72;0.60;;;;;;;9.73;89.03;99944.50;5030447;28;20091;-78
2021/01/12 07:28:21;;;;;;;2.75;0.60;;;;;;;9.74;88.23;99948.88;5055397;28;20400;-79
2021/01/12 07:30:56;;;;;;;2.00;0.70;;;;;;;9.77;88.14;99940.16;5054448;28;20563;-79
2021/01/12 07:33:26;;;;;;;2.33;0.65;;;;;;;9.82;88.09;99951.06;5050828;28;20075;-77
2021/01/12 07:35:59;;;;;;;2.42;0.80;;;;;;;9.78;87.89;99967.19;5045700;28;20132;-80
2021/01/12 07:38:30;;;;;;;3.10;0.60;;;;;;;9.77;88.24;99945.63;5049267;28;20734;-75
2021/01/12 07:40:58;;;;;;;0.60;0.52;;;;;;;9.79;88.55;99948.88;5034142;28;20029;-75
2021/01/12 07:43:43;;;;;;;2.33;0.93;;;;;;;9.75;88.30;99955.97;5045448;28;20026;-76
2021/01/12 07:46:11;;;;;;;2.13;0.68;;;;;;;9.71;88.06;99943.94;5043801;28;20037;-76
2021/01/12 07:48:56;;;;;;;;;;;;;;;;;;;;;
2021/01/12 07:51:27;;;;;;;2.13;0.82;;;;;;;9.76;88.34;99941.22;5041467;28;20695;-77
2021/01/12 07:53:52;;;;;;;3.30;0.80;;;;;;;9.73;88.25;99941.78;5040178;28;20449;-77
2021/01/12 07:56:18;;;;;;;3.95;1.42;;;;;;;9.77;88.20;99975.66;5042225;28;20028;-76
2021/01/12 07:58:44;;;;;;;3.10;0.70;;;;;;;9.76;88.13;99974.00;5046350;28;20025;-76
2021/01/12 08:01:10;;;;;;;2.92;0.98;;;;;;;9.82;88.25;99967.44;5043293;28;20151;-76
2021/01/12 08:03:37;;;;;;;8.05;1.35;;;;;;;9.78;88.79;99978.09;5051680;28;20530;-75
2021/01/12 08:06:04;;;;;;;3.45;0.73;;;;;;;9.78;88.75;99971.81;5057903;28;20052;-76
2021/01/12 08:08:41;;;;;;;5.55;1.13;;;;;;;9.89;88.42;99978.91;5026780;28;20098;-75
2021/01/12 08:11:07;;;;;;;4.88;0.80;;;;;;;9.88;87.79;99974.53;5044065;28;20471;-74
2021/01/12 08:13:32;;;;;;;6.22;1.30;;;;;;;9.84;88.43;99970.75;5047132;28;20248;-75
2021/01/12 08:15:58;;;;;;;2.58;0.90;;;;;;;9.86;88.45;99984.94;5049920;28;20080;-75
2021/01/12 08:18:23;;;;;;;13.85;1.65;;;;;;;9.73;88.26;99980.00;5049740;28;20025;-75
2021/01/12 08:20:55;;;;;;;6.93;1.52;;;;;;;9.78;87.88;99991.75;5039161;28;20529;-74
2021/01/12 08:23:21;;;;;;;5.78;1.55;;;;;;;9.78;88.49;99980.00;5027141;28;20093;-75
2021/01/12 08:25:47;;;;;;;10.15;2.05;;;;;;;9.74;88.18;99995.31;5035061;28;20395;-74
2021/01/12 08:28:13;;;;;;;7.20;1.77;;;;;;;9.74;88.35;99992.56;5051497;28;20079;-73
2021/01/12 08:30:40;;;;;;;8.10;1.45;;;;;;;9.71;88.25;99988.47;5049212;28;20189;-74
2021/01/12 08:33:14;;;;;;;2.67;1.27;;;;;;;9.81;88.41;100004.03;5048551;28;20025;-74
2021/01/12 08:35:52;;;;;;;7.85;1.58;;;;;;;9.80;88.24;100002.41;5033700;28;20040;-74
2021/01/12 08:38:21;;;;;;;4.15;1.25;;;;;;;9.82;88.13;100005.69;5049725;28;20025;-75
2021/01/12 08:40:48;;;;;;;3.65;2.40;;;;;;;9.84;88.78;100019.91;5044209;28;20052;-74
2021/01/12 08:43:17;;;;;;;1.65;1.10;;;;;;;9.88;88.43;100010.03;5041159;28;20032;-74
2021/01/12 08:45:44;;;;;;;2.40;1.17;;;;;;;9.85;88.54;100016.06;5049631;28;20016;-75
2021/01/12 08:48:17;;;;;;;8.23;2.15;;;;;;;9.91;88.26;100023.16;5052875;28;20035;-75
2021/01/12 08:50:46;;;;;;;3.88;1.27;;;;;;;9.90;88.24;100013.34;5050310;28;20107;-73
2021/01/12 08:53:16;;;;;;;1.25;1.08;;;;;;;9.96;87.97;100027.81;5051415;28;20025;-75
2021/01/12 08:55:41;;;;;;;2.85;1.20;;;;;;;9.93;88.69;100029.19;5046942;28;20028;-74
2021/01/12 08:58:11;;;;;;;6.38;1.58;;;;;;;9.92;88.48;100033.00;5041319;28;20115;-76
2021/01/12 09:00:38;;;;;;;5.15;1.35;;;;;;;9.96;87.85;100039.56;5049606;28;20033;-75
2021/01/12 09:03:05;;;;;;;1.63;1.50;;;;;;;9.94;88.39;100040.91;5032663;28;20063;-75
2021/01/12 09:05:41;;;;;;;3.35;1.25;;;;;;;9.94;88.10;100039.03;5042555;28;20028;-75
2021/01/12 09:08:12;;;;;;;10.93;1.45;;;;;;;9.94;88.07;100041.75;5047611;28;20037;-75
2021/01/12 09:10:42;;;;;;;3.63;1.38;;;;;;;9.95;88.79;100050.75;5053054;28;20166;-75
2021/01/12 09:13:08;;;;;;;4.72;1.30;;;;;;;9.94;88.51;100052.69;5069856;28;20031;-75
2021/01/12 09:15:35;;;;;;;1.20;0.98;;;;;;;9.96;88.51;100058.69;5046520;28;20021;-76
2021/01/12 09:18:35;;;;;;;3.17;1.50;;;;;;;9.99;88.55;100059.22;5061812;28;20048;-75
2021/01/12 09:21:03;;;;;;;0.98;0.90;;;;;;;9.95;88.53;100057.03;5052342;28;20044;-75
2021/01/12 09:23:29;;;;;;;1.88;1.23;;;;;;;9.95;88.57;100075.34;5049963;28;20026;-75
2021/01/12 09:26:01;;;;;;;4.78;1.15;;;;;;;9.98;88.32;100085.72;5057442;28;20107;-75
2021/01/12 09:28:30;;;;;;;1.55;0.98;;;;;;;9.95;88.32;100076.16;5071760;28;20109;-76
2021/01/12 09:31:07;;;;;;;2.35;0.98;;;;;;;10.03;88.54;100082.19;5069468;28;20479;-75
2021/01/12 09:33:33;;;;;;;3.97;1.15;;;;;;;10.02;88.26;100080.56;5070288;28;20037;-75
2021/01/12 09:36:03;;;;;;;2.00;1.30;;;;;;;10.04;88.64;100084.63;5067753;28;20085;-76
2021/01/12 09:38:48;;;;;;;4.40;0.90;;;;;;;10.05;88.10;100090.94;5051310;28;20035;-75
2021/01/12 09:41:23;;;;;;;9.27;1.15;;;;;;;10.03;87.92;100093.94;5042810;28;20035;-75
2021/01/12 09:43:48;;;;;;;3.67;1.20;;;;;;;10.04;87.93;100094.75;5056508;28;20023;-75
2021/01/12 09:46:15;;;;;;;1.27;0.93;;;;;;;10.06;87.61;100103.50;5051776;28;20030;-75
2021/01/12 09:48:40;;;;;;;1.45;1.30;;;;;;;10.05;88.31;100101.88;5070830;28;20074;-75
2021/01/12 09:51:06;;;;;;;2.67;1.42;;;;;;;10.03;87.81;100109.50;5067556;28;20036;-76
2021/01/12 09:53:31;;;;;;;3.80;1.30;;;;;;;10.02;87.78;100102.41;5038718;28;20489;-75
2021/01/12 09:55:57;;;;;;;2.33;1.55;;;;;;;10.05;87.91;100101.88;5062781;28;20036;-75
2021/01/12 09:58:23;;;;;;;3.88;1.23;;;;;;;10.10;88.60;100107.31;5061375;28;20028;-74
2021/01/12 10:00:49;;;;;;;6.63;1.55;;;;;;;10.15;88.62;100112.81;5050975;28;20037;-76
2021/01/12 10:03:14;;;;;;;1.75;1.00;;;;;;;10.18;88.09;100112.28;5072594;28;20016;-75
2021/01/12 10:05:41;;;;;;;4.75;1.40;;;;;;;10.20;88.44;100115.53;5059211;28;20025;-74
2021/01/12 10:08:07;;;;;;;1.30;1.20;;;;;;;10.20;88.26;100121.00;5058029;28;20376;-74
2021/01/12 10:10:33;;;;;;;2.15;1.15;;;;;;;10.23;87.75;100125.94;5062482;28;20036;-75
2021/01/12 10:12:59;;;;;;;1.50;1.35;;;;;;;10.23;87.95;100131.38;5060256;28;20463;-75
2021/01/12 10:15:24;;;;;;;1.88;1.75;;;;;;;10.35;88.10;100135.81;5073537;28;20030;-75
2021/01/12 10:17:50;;;;;;;4.55;1.33;;;;;;;10.44;88.11;100142.38;5055235;28;20032;-75
2021/01/12 10:20:15;;;;;;;0.70;0.70;;;;;;;10.52;88.41;100150.06;5037059;28;20070;-75
2021/01/12 10:22:41;;;;;;;0.40;0.40;;;;;;;10.60;88.10;100141.31;5042588;28;20033;-75
2021/01/12 10:25:07;;;;;;;0.82;0.80;;;;;;;10.65;87.86;100146.78;5053741;28;20025;-75
2021/01/12 10:27:34;;;;;;;1.25;0.63;;;;;;;10.70;88.06;100150.59;5035822;28;20438;-76
2021/01/12 10:30:01;;;;;;;1.50;0.82;;;;;;;10.71;87.79;100157.72;5026417;28;20040;-76
2021/01/12 10:32:26;;;;;;;1.58;0.82;;;;;;;10.70;87.37;100167.00;5023196;28;20087;-74
2021/01/12 10:34:52;;;;;;;0.52;0.50;;;;;;;10.59;87.17;100161.53;5044626;28;20467;-75
2021/01/12 10:37:17;;;;;;;0.77;0.20;;;;;;;10.52;87.41;100174.66;5051806;28;20033;-75
2021/01/12 10:39:43;;;;;;;0.20;0.20;;;;;;;10.42;87.23;100172.72;5066879;28;20025;-74
2021/01/12 10:42:09;;;;;;;0.13;0.13;;;;;;;10.34;87.14;100175.16;5038251;28;20082;-76
2021/01/12 10:44:34;;;;;;;0.30;0.30;;;;;;;10.30;87.28;100192.06;5061206;28;20028;-75
2021/01/12 10:46:59;;;;;;;0.25;0.20;;;;;;;10.32;87.67;100189.06;5060656;28;20032;-75
2021/01/12 10:49:25;;;;;;;2.55;0.20;;;;;;;10.33;87.25;100184.44;5071366;28;20024;-76
2021/01/12 10:52:02;;;;;;;0.95;0.20;;;;;;;10.37;87.42;100191.06;5072874;28;20074;-77
2021/01/12 10:54:29;;;;;;;0.10;0.10;;;;;;;10.41;87.32;100175.72;5070364;28;20035;-76
2021/01/12 10:56:55;;;;;;;1.10;0.40;;;;;;;10.49;87.46;100183.41;5060518;28;20020;-76
2021/01/12 10:59:21;;;;;;;0.30;0.30;;;;;;;10.54;87.21;100186.16;5067841;28;20071;-76
2021/01/12 11:01:57;;;;;;;0.30;0.30;;;;;;;10.64;87.42;100191.63;5057786;28;20025;-77
2021/01/12 11:04:23;;;;;;;0.20;0.20;;;;;;;10.72;87.03;100193.00;5066252;28;20020;-76
2021/01/12 11:06:51;;;;;;;0.75;0.32;;;;;;;10.79;87.51;100188.09;5051444;28;20471;-74
2021/01/12 11:09:20;;;;;;;1.50;0.30;;;;;;;10.94;86.83;100198.19;5065401;28;20049;-75
2021/01/12 11:11:48;;;;;;;0.30;0.30;;;;;;;11.03;86.89;100208.59;5060373;28;20040;-74
2021/01/12 11:14:15;;;;;;;1.05;0.20;;;;;;;11.05;86.47;100200.94;5039610;28;20107;-74
2021/01/12 11:16:41;;;;;;;0.25;0.25;;;;;;;11.16;86.69;100208.03;5069299;28;20031;-75
2021/01/12 11:19:10;;;;;;;0.40;0.30;;;;;;;11.20;86.40;100214.63;5031694;28;20112;-75
2021/01/12 11:21:46;;;;;;;0.25;0.25;;;;;;;11.24;86.60;100204.72;5066784;28;20031;-75
2021/01/12 11:24:14;;;;;;;0.30;0.30;;;;;;;11.25;86.45;100211.84;5059198;28;20032;-75
2021/01/12 11:26:41;;;;;;;0.60;0.30;;;;;;;11.27;86.56;100215.16;5052359;28;20023;-76
2021/01/12 11:29:08;;;;;;;0.50;0.50;;;;;;;11.27;86.01;100215.16;5053773;28;20494;-76
2021/01/12 11:31:41;;;;;;;0.25;0.25;;;;;;;11.23;85.97;100205.84;5044142;28;20044;-77
2021/01/12 11:34:11;;;;;;;0.20;0.20;;;;;;;11.12;86.83;100201.47;5036860;28;20534;-76
2021/01/12 11:36:43;;;;;;;0.30;0.30;;;;;;;11.14;86.28;100205.59;5049435;28;20039;-75
2021/01/12 11:39:19;;;;;;;0.32;0.30;;;;;;;11.18;86.71;100214.88;5064095;28;20089;-76
2021/01/12 11:41:54;;;;;;;0.20;0.20;;;;;;;11.21;86.22;100208.03;5051935;28;20364;-77